Terminal Aerodrome Forecast
Issued by NWS

Home | Current Version | Previous Version | Text Only | Print | Product List | Glossary On
Versions: 1 2 3 4 5 6 7 8 9 10 11 12
000
FTUS43 KOAX 230500
TAFSNY
TAF
KSNY 230520Z 2306/2406 18013KT P6SM BKN250
     FM231200 25014G22KT P6SM SCT250
     FM231500 32020G30KT P6SM BKN250
     FM232200 32025G35KT P6SM VCSH BKN100 OVC150=

USA.gov is the U.S. government's official web portal to all federal, state and local government web resources and services.